sensor_id;sensor_type;location;lat;lon;timestamp;P1;durP1;ratioP1;P2;durP2;ratioP2
50789;SDS011;37287;47.554;7.844;2022-08-04T12:20:23;0.52;;;0.52;;
50789;SDS011;37287;47.554;7.844;2022-08-04T12:23:07;2.72;;;0.60;;
50789;SDS011;37287;47.554;7.844;2022-08-04T12:25:42;2.65;;;0.82;;
50789;SDS011;37287;47.554;7.844;2022-08-04T12:28:31;1.17;;;0.60;;
50789;SDS011;37287;47.554;7.844;2022-08-04T12:31:26;1.10;;;0.70;;
50789;SDS011;37287;47.554;7.844;2022-08-04T12:34:07;1.40;;;0.60;;
50789;SDS011;37287;47.554;7.844;2022-08-04T12:37:12;1.05;;;0.70;;
50789;SDS011;37287;47.554;7.844;2022-08-04T12:39:47;1.05;;;0.60;;
50789;SDS011;37287;47.554;7.844;2022-08-04T12:42:41;0.60;;;0.60;;
50789;SDS011;37287;47.554;7.844;2022-08-04T12:45:25;2.85;;;0.60;;
50789;SDS011;37287;47.554;7.844;2022-08-04T12:47:56;2.13;;;0.70;;
50789;SDS011;37287;47.554;7.844;2022-08-04T12:50:24;6.50;;;0.75;;
50789;SDS011;37287;47.554;7.844;2022-08-04T12:52:53;0.70;;;0.70;;
50789;SDS011;37287;47.554;7.844;2022-08-04T12:55:30;1.90;;;1.00;;
50789;SDS011;37287;47.554;7.844;2022-08-04T12:58:00;4.22;;;0.80;;
50789;SDS011;37287;47.554;7.844;2022-08-04T13:00:34;3.42;;;0.75;;
50789;SDS011;37287;47.554;7.844;2022-08-04T13:03:11;1.60;;;0.70;;
50789;SDS011;37287;47.554;7.844;2022-08-04T13:05:41;1.55;;;0.77;;
50789;SDS011;37287;47.554;7.844;2022-08-04T13:08:10;3.70;;;0.60;;
50789;SDS011;37287;47.554;7.844;2022-08-04T13:10:39;1.38;;;0.70;;
50789;SDS011;37287;47.554;7.844;2022-08-04T13:13:13;0.75;;;0.60;;
50789;SDS011;37287;47.554;7.844;2022-08-04T13:15:42;0.50;;;0.50;;
50789;SDS011;37287;47.554;7.844;2022-08-04T13:18:21;1.33;;;0.60;;
50789;SDS011;37287;47.554;7.844;2022-08-04T13:21:17;4.75;;;0.70;;
50789;SDS011;37287;47.554;7.844;2022-08-04T13:24:08;0.85;;;0.60;;
50789;SDS011;37287;47.554;7.844;2022-08-04T13:26:57;1.38;;;0.68;;
50789;SDS011;37287;47.554;7.844;2022-08-04T13:29:48;0.60;;;0.60;;
50789;SDS011;37287;47.554;7.844;2022-08-04T13:32:28;1.23;;;0.65;;
50789;SDS011;37287;47.554;7.844;2022-08-04T13:34:56;0.90;;;0.65;;
50789;SDS011;37287;47.554;7.844;2022-08-04T13:37:29;2.63;;;0.50;;
50789;SDS011;37287;47.554;7.844;2022-08-04T13:40:00;1.48;;;0.60;;
50789;SDS011;37287;47.554;7.844;2022-08-04T13:42:33;1.48;;;0.70;;
50789;SDS011;37287;47.554;7.844;2022-08-04T13:45:03;1.52;;;0.70;;
50789;SDS011;37287;47.554;7.844;2022-08-04T13:47:33;0.90;;;0.68;;
50789;SDS011;37287;47.554;7.844;2022-08-04T13:50:07;0.70;;;0.60;;
50789;SDS011;37287;47.554;7.844;2022-08-04T13:52:38;3.13;;;0.60;;
50789;SDS011;37287;47.554;7.844;2022-08-04T13:58:06;0.57;;;0.57;;
50789;SDS011;37287;47.554;7.844;2022-08-04T14:03:12;1.13;;;0.60;;
50789;SDS011;37287;47.554;7.844;2022-08-04T14:08:50;2.70;;;0.68;;
50789;SDS011;37287;47.554;7.844;2022-08-04T14:11:21;0.77;;;0.60;;
50789;SDS011;37287;47.554;7.844;2022-08-04T14:14:29;4.03;;;0.90;;
50789;SDS011;37287;47.554;7.844;2022-08-04T14:24:56;3.75;;;1.42;;
50789;SDS011;37287;47.554;7.844;2022-08-04T14:29:54;0.38;;;0.38;;
50789;SDS011;37287;47.554;7.844;2022-08-04T14:32:21;2.15;;;0.70;;
50789;SDS011;37287;47.554;7.844;2022-08-04T14:34:51;0.47;;;0.47;;
50789;SDS011;37287;47.554;7.844;2022-08-04T14:37:18;0.57;;;0.57;;
50789;SDS011;37287;47.554;7.844;2022-08-04T14:39:48;2.63;;;0.60;;
50789;SDS011;37287;47.554;7.844;2022-08-04T14:42:40;0.70;;;0.70;;
50789;SDS011;37287;47.554;7.844;2022-08-04T14:45:08;0.40;;;0.40;;
50789;SDS011;37287;47.554;7.844;2022-08-04T14:47:40;4.25;;;0.60;;
50789;SDS011;37287;47.554;7.844;2022-08-04T14:50:18;1.75;;;0.70;;
50789;SDS011;37287;47.554;7.844;2022-08-04T14:52:45;1.27;;;0.63;;
50789;SDS011;37287;47.554;7.844;2022-08-04T14:55:19;0.50;;;0.50;;
50789;SDS011;37287;47.554;7.844;2022-08-04T14:57:49;1.67;;;0.80;;
50789;SDS011;37287;47.554;7.844;2022-08-04T15:00:37;0.40;;;0.40;;
50789;SDS011;37287;47.554;7.844;2022-08-04T15:03:06;1.20;;;0.60;;
50789;SDS011;37287;47.554;7.844;2022-08-04T15:05:35;1.20;;;0.60;;
50789;SDS011;37287;47.554;7.844;2022-08-04T15:08:24;2.05;;;0.60;;
50789;SDS011;37287;47.554;7.844;2022-08-04T15:10:59;1.52;;;0.57;;
50789;SDS011;37287;47.554;7.844;2022-08-04T15:13:31;8.10;;;0.60;;
50789;SDS011;37287;47.554;7.844;2022-08-04T15:15:58;1.60;;;0.52;;
50789;SDS011;37287;47.554;7.844;2022-08-04T15:18:33;2.58;;;0.90;;
50789;SDS011;37287;47.554;7.844;2022-08-04T15:21:04;3.13;;;0.60;;
50789;SDS011;37287;47.554;7.844;2022-08-04T15:23:33;0.45;;;0.45;;
50789;SDS011;37287;47.554;7.844;2022-08-04T15:26:05;0.70;;;0.60;;
50789;SDS011;37287;47.554;7.844;2022-08-04T15:28:40;0.88;;;0.60;;
50789;SDS011;37287;47.554;7.844;2022-08-04T15:31:11;1.65;;;0.60;;
50789;SDS011;37287;47.554;7.844;2022-08-04T15:34:06;0.82;;;0.63;;
50789;SDS011;37287;47.554;7.844;2022-08-04T15:36:37;1.13;;;0.70;;
50789;SDS011;37287;47.554;7.844;2022-08-04T15:39:43;1.55;;;0.88;;
50789;SDS011;37287;47.554;7.844;2022-08-04T15:42:29;0.98;;;0.60;;
50789;SDS011;37287;47.554;7.844;2022-08-04T15:45:02;1.85;;;0.60;;
50789;SDS011;37287;47.554;7.844;2022-08-04T15:47:36;0.68;;;0.68;;
50789;SDS011;37287;47.554;7.844;2022-08-04T15:50:10;0.82;;;0.70;;
50789;SDS011;37287;47.554;7.844;2022-08-04T15:55:39;0.95;;;0.50;;
50789;SDS011;37287;47.554;7.844;2022-08-04T15:58:09;1.10;;;0.68;;
50789;SDS011;37287;47.554;7.844;2022-08-04T16:08:58;1.00;;;0.63;;
50789;SDS011;37287;47.554;7.844;2022-08-04T16:19:05;0.60;;;0.60;;
50789;SDS011;37287;47.554;7.844;2022-08-04T16:21:34;2.33;;;0.60;;
50789;SDS011;37287;47.554;7.844;2022-08-04T16:24:16;1.27;;;0.68;;
50789;SDS011;37287;47.554;7.844;2022-08-04T16:26:47;1.08;;;0.70;;
50789;SDS011;37287;47.554;7.844;2022-08-04T16:34:32;0.60;;;0.43;;
50789;SDS011;37287;47.554;7.844;2022-08-04T16:37:20;0.60;;;0.60;;
50789;SDS011;37287;47.554;7.844;2022-08-04T16:43:07;2.17;;;0.70;;
50789;SDS011;37287;47.554;7.844;2022-08-04T16:45:42;1.48;;;0.68;;
50789;SDS011;37287;47.554;7.844;2022-08-04T16:48:10;1.27;;;0.60;;
50789;SDS011;37287;47.554;7.844;2022-08-04T16:50:44;1.92;;;0.80;;
50789;SDS011;37287;47.554;7.844;2022-08-04T16:53:15;1.10;;;0.90;;
50789;SDS011;37287;47.554;7.844;2022-08-04T16:56:06;0.85;;;0.80;;
50789;SDS011;37287;47.554;7.844;2022-08-04T16:58:36;0.60;;;0.60;;
50789;SDS011;37287;47.554;7.844;2022-08-04T17:01:19;4.85;;;0.90;;
50789;SDS011;37287;47.554;7.844;2022-08-04T17:03:59;0.60;;;0.60;;
50789;SDS011;37287;47.554;7.844;2022-08-04T17:06:33;3.22;;;0.70;;
50789;SDS011;37287;47.554;7.844;2022-08-04T17:09:04;1.55;;;0.65;;
50789;SDS011;37287;47.554;7.844;2022-08-04T17:11:32;1.15;;;0.60;;
50789;SDS011;37287;47.554;7.844;2022-08-04T17:13:59;0.80;;;0.80;;
50789;SDS011;37287;47.554;7.844;2022-08-04T17:16:31;2.85;;;0.85;;
50789;SDS011;37287;47.554;7.844;2022-08-04T17:19:00;2.20;;;0.82;;
50789;SDS011;37287;47.554;7.844;2022-08-04T17:21:30;2.58;;;0.80;;
50789;SDS011;37287;47.554;7.844;2022-08-04T17:23:59;0.60;;;0.60;;
50789;SDS011;37287;47.554;7.844;2022-08-04T17:26:43;1.33;;;0.80;;
50789;SDS011;37287;47.554;7.844;2022-08-04T17:29:20;0.68;;;0.68;;
50789;SDS011;37287;47.554;7.844;2022-08-04T17:32:16;0.63;;;0.63;;
50789;SDS011;37287;47.554;7.844;2022-08-04T17:34:54;2.92;;;0.75;;
50789;SDS011;37287;47.554;7.844;2022-08-04T17:37:24;0.70;;;0.70;;
50789;SDS011;37287;47.554;7.844;2022-08-04T17:40:12;1.48;;;0.98;;
50789;SDS011;37287;47.554;7.844;2022-08-04T17:43:03;1.38;;;0.90;;
50789;SDS011;37287;47.554;7.844;2022-08-04T17:49:00;2.42;;;0.75;;
50789;SDS011;37287;47.554;7.844;2022-08-04T17:51:34;1.83;;;0.70;;
50789;SDS011;37287;47.554;7.844;2022-08-04T17:59:56;3.15;;;0.98;;
50789;SDS011;37287;47.554;7.844;2022-08-04T18:02:26;2.70;;;1.00;;
50789;SDS011;37287;47.554;7.844;2022-08-04T18:04:59;2.55;;;0.90;;
50789;SDS011;37287;47.554;7.844;2022-08-04T18:07:38;0.70;;;0.70;;
50789;SDS011;37287;47.554;7.844;2022-08-04T18:10:35;2.75;;;0.90;;
50789;SDS011;37287;47.554;7.844;2022-08-04T18:13:21;1.65;;;1.08;;
50789;SDS011;37287;47.554;7.844;2022-08-04T18:15:49;0.70;;;0.70;;
50789;SDS011;37287;47.554;7.844;2022-08-04T18:18:25;2.85;;;0.75;;
50789;SDS011;37287;47.554;7.844;2022-08-04T18:20:53;0.77;;;0.77;;
50789;SDS011;37287;47.554;7.844;2022-08-04T18:23:24;1.88;;;0.90;;
50789;SDS011;37287;47.554;7.844;2022-08-04T18:25:59;1.00;;;0.90;;
50789;SDS011;37287;47.554;7.844;2022-08-04T18:28:27;1.15;;;0.88;;
50789;SDS011;37287;47.554;7.844;2022-08-04T18:30:58;3.40;;;0.90;;
50789;SDS011;37287;47.554;7.844;2022-08-04T18:33:34;1.15;;;0.93;;
50789;SDS011;37287;47.554;7.844;2022-08-04T18:36:06;2.10;;;1.00;;
50789;SDS011;37287;47.554;7.844;2022-08-04T18:38:54;2.72;;;1.10;;
50789;SDS011;37287;47.554;7.844;2022-08-04T18:41:24;1.50;;;1.20;;
50789;SDS011;37287;47.554;7.844;2022-08-04T18:43:53;3.70;;;1.25;;
50789;SDS011;37287;47.554;7.844;2022-08-04T18:46:22;1.13;;;1.00;;
50789;SDS011;37287;47.554;7.844;2022-08-04T18:48:52;3.03;;;0.90;;
50789;SDS011;37287;47.554;7.844;2022-08-04T18:51:19;2.33;;;1.23;;
50789;SDS011;37287;47.554;7.844;2022-08-04T18:54:06;1.58;;;1.00;;
50789;SDS011;37287;47.554;7.844;2022-08-04T18:56:35;1.42;;;1.00;;
50789;SDS011;37287;47.554;7.844;2022-08-04T18:59:03;1.48;;;0.88;;
50789;SDS011;37287;47.554;7.844;2022-08-04T19:01:36;0.80;;;0.80;;
50789;SDS011;37287;47.554;7.844;2022-08-04T19:04:24;1.02;;;0.70;;
50789;SDS011;37287;47.554;7.844;2022-08-04T19:07:02;1.27;;;0.90;;
50789;SDS011;37287;47.554;7.844;2022-08-04T19:09:51;1.08;;;0.80;;
50789;SDS011;37287;47.554;7.844;2022-08-04T19:12:22;2.70;;;1.17;;
50789;SDS011;37287;47.554;7.844;2022-08-04T19:15:02;2.25;;;1.00;;
50789;SDS011;37287;47.554;7.844;2022-08-04T19:17:36;0.98;;;0.98;;
50789;SDS011;37287;47.554;7.844;2022-08-04T19:20:22;1.58;;;1.23;;
50789;SDS011;37287;47.554;7.844;2022-08-04T19:22:51;2.85;;;1.02;;
50789;SDS011;37287;47.554;7.844;2022-08-04T19:25:44;2.72;;;1.05;;
50789;SDS011;37287;47.554;7.844;2022-08-04T19:31:04;0.90;;;0.90;;
50789;SDS011;37287;47.554;7.844;2022-08-04T19:33:35;3.72;;;1.05;;
50789;SDS011;37287;47.554;7.844;2022-08-04T19:36:24;2.10;;;1.00;;
50789;SDS011;37287;47.554;7.844;2022-08-04T19:38:56;4.80;;;1.27;;
50789;SDS011;37287;47.554;7.844;2022-08-04T19:41:27;1.10;;;0.90;;
50789;SDS011;37287;47.554;7.844;2022-08-04T19:44:18;2.60;;;1.20;;
50789;SDS011;37287;47.554;7.844;2022-08-04T19:46:48;1.52;;;1.30;;
50789;SDS011;37287;47.554;7.844;2022-08-04T19:49:17;1.98;;;1.20;;
50789;SDS011;37287;47.554;7.844;2022-08-04T19:52:04;3.28;;;1.10;;
50789;SDS011;37287;47.554;7.844;2022-08-04T19:54:34;4.00;;;1.20;;
50789;SDS011;37287;47.554;7.844;2022-08-04T19:57:06;6.63;;;1.33;;
50789;SDS011;37287;47.554;7.844;2022-08-04T19:59:37;8.02;;;1.20;;
50789;SDS011;37287;47.554;7.844;2022-08-04T20:02:13;1.85;;;1.35;;
50789;SDS011;37287;47.554;7.844;2022-08-04T20:04:40;5.25;;;1.10;;
50789;SDS011;37287;47.554;7.844;2022-08-04T20:07:07;6.90;;;1.42;;
50789;SDS011;37287;47.554;7.844;2022-08-04T20:09:39;4.43;;;1.20;;
50789;SDS011;37287;47.554;7.844;2022-08-04T20:12:18;0.90;;;0.90;;
50789;SDS011;37287;47.554;7.844;2022-08-04T20:14:45;3.03;;;1.05;;
50789;SDS011;37287;47.554;7.844;2022-08-04T20:17:14;4.25;;;1.17;;
50789;SDS011;37287;47.554;7.844;2022-08-04T20:19:43;2.88;;;1.27;;
50789;SDS011;37287;47.554;7.844;2022-08-04T20:22:17;1.88;;;1.25;;
50789;SDS011;37287;47.554;7.844;2022-08-04T20:25:07;2.67;;;1.33;;
50789;SDS011;37287;47.554;7.844;2022-08-04T20:27:53;1.55;;;1.20;;
50789;SDS011;37287;47.554;7.844;2022-08-04T20:30:25;1.20;;;1.10;;
50789;SDS011;37287;47.554;7.844;2022-08-04T20:32:53;1.20;;;1.13;;
50789;SDS011;37287;47.554;7.844;2022-08-04T20:35:20;1.48;;;1.15;;
50789;SDS011;37287;47.554;7.844;2022-08-04T20:37:52;3.45;;;1.20;;
50789;SDS011;37287;47.554;7.844;2022-08-04T20:40:25;1.13;;;1.02;;
50789;SDS011;37287;47.554;7.844;2022-08-04T20:42:52;3.90;;;1.40;;
